CheckWX is a tool to help pilots better visualize weather data.  It is not intended as a substitute for an official pre-flight weather briefing.

15:38:50 UTC

UAKD METAR
Zhezkazgan
Zhezkazgan, Kazakhstan
Current

2 hours ago

UAKD 221400Z 08003MPS CAVOK M13/M18 Q1034 R22/0///65 NOSIG RMK QFE742/0989
Observed
Nov-22 @ 14:00 UTC
Wind
  • 080° at 6 KTS
Visibility
10,000+ meters
Flight Rules
VFR
Cloud Levels
  • Clear skies
Temperature
-13°C / 9°F
Dewpoint
-18°C / -0°F
Humidity
66%
Altimeter
30.53" Hg
Pressure
1033.92 hPa
Previous

2 hours ago

UAKD 221330Z 05002MPS CAVOK M11/M16 Q1034 R04/0///65 NOSIG RMK QFE741/0988
Observed
Nov-22 @ 13:30 UTC
Wind
  • 050° at 4 KTS
Visibility
10,000+ meters
Flight Rules
VFR
Cloud Levels
  • Clear skies
Temperature
-11°C / 12°F
Dewpoint
-16°C / 3°F
Humidity
67%
Altimeter
30.53" Hg
Pressure
1033.92 hPa
Previous

3 hours ago

UAKD 221300Z 03003MPS CAVOK M12/M17 Q1034 R04/0///65 NOSIG RMK QFE741/0988
Observed
Nov-22 @ 13:00 UTC
Wind
  • 030° at 6 KTS
Visibility
10,000+ meters
Flight Rules
VFR
Cloud Levels
  • Clear skies
Temperature
-12°C / 10°F
Dewpoint
-17°C / 1°F
Humidity
67%
Altimeter
30.53" Hg
Pressure
1033.92 hPa